Time;durP1;ratioP1;P1;durP2;ratioP2;P2;SDS_P1;SDS_P2;PMS_P1;PMS_P2;Temp;Humidity;BMP_temperature;BMP_pressure;BME280_temperature;BME280_humidity;BME280_pressure;Samples;Min_cycle;Max_cycle;Signal;HPM_P1;HPM_P2
2020/12/06 00:01:02;;;;;;;;;;;15.10;56.40;;;;;;2089856;28;715;-49
2020/12/06 00:02:22;;;;;;;;;;;15.10;56.40;;;;;;2089000;28;794;-48
2020/12/06 00:03:41;;;;;;;;;;;15.10;56.30;;;;;;2084983;28;1345;-50
2020/12/06 00:05:00;;;;;;;;;;;15.10;56.40;;;;;;2089113;28;980;-49
2020/12/06 00:06:20;;;;;;;;;;;15.10;56.40;;;;;;2088670;28;1059;-48
2020/12/06 00:07:39;;;;;;;;;;;15.10;56.90;;;;;;2088583;28;1294;-48
2020/12/06 00:08:58;;;;;;;;;;;15.10;57.00;;;;;;2077875;28;724;-48
2020/12/06 00:10:17;;;;;;;;;;;15.10;56.50;;;;;;2081263;28;747;-47
2020/12/06 00:11:37;;;;;;;;;;;15.00;56.40;;;;;;2081673;28;757;-48
2020/12/06 00:12:56;;;;;;;;;;;15.00;56.70;;;;;;2081359;28;1322;-48
2020/12/06 00:14:15;;;;;;;;;;;15.00;56.50;;;;;;2080966;28;745;-48
2020/12/06 00:15:34;;;;;;;;;;;15.00;56.60;;;;;;2077155;28;708;-48
2020/12/06 00:16:54;;;;;;;;;;;15.00;56.70;;;;;;2081140;28;720;-48
2020/12/06 00:18:13;;;;;;;;;;;15.00;56.60;;;;;;2081527;28;797;-49
2020/12/06 00:19:32;;;;;;;;;;;15.00;56.60;;;;;;2081014;28;1894;-49
2020/12/06 00:20:51;;;;;;;;;;;15.00;56.70;;;;;;2081266;28;799;-48
2020/12/06 00:22:11;;;;;;;;;;;15.00;56.80;;;;;;2081342;28;744;-49
2020/12/06 00:23:30;;;;;;;;;;;15.00;57.30;;;;;;2081398;28;1492;-48
2020/12/06 00:24:49;;;;;;;;;;;15.00;57.30;;;;;;2080493;28;740;-49
2020/12/06 00:26:08;;;;;;;;;;;14.90;56.80;;;;;;2081014;28;742;-48
2020/12/06 00:27:30;;;;;;;;;;;14.90;56.80;;;;;;2085767;28;722;-48
2020/12/06 00:28:49;;;;;;;;;;;14.90;56.80;;;;;;2083995;28;722;-49
2020/12/06 00:30:09;;;;;;;;;;;14.90;56.80;;;;;;2080828;28;711;-49
2020/12/06 00:31:28;;;;;;;;;;;14.90;56.90;;;;;;2081140;28;1304;-50
2020/12/06 00:32:47;;;;;;;;;;;14.90;57.10;;;;;;2081119;28;1381;-49
2020/12/06 00:34:06;;;;;;;;;;;14.90;57.00;;;;;;2089577;28;968;-49
2020/12/06 00:35:25;;;;;;;;;;;14.90;56.80;;;;;;2080559;28;910;-50
2020/12/06 00:36:47;;;;;;;;;;;14.90;57.00;;;;;;2089027;28;787;-48
2020/12/06 00:38:06;;;;;;;;;;;14.90;57.00;;;;;;2086203;28;712;-47
2020/12/06 00:39:26;;;;;;;;;;;14.90;57.10;;;;;;2089170;28;1973;-48
2020/12/06 00:40:45;;;;;;;;;;;14.90;57.10;;;;;;2089572;28;703;-49
2020/12/06 00:42:04;;;;;;;;;;;14.90;57.10;;;;;;2089683;28;764;-48
2020/12/06 00:43:23;;;;;;;;;;;14.80;57.10;;;;;;2089446;28;1368;-48
2020/12/06 00:44:43;;;;;;;;;;;14.80;57.00;;;;;;2088666;28;766;-47
2020/12/06 00:46:02;;;;;;;;;;;14.80;57.20;;;;;;2089263;28;776;-49
2020/12/06 00:47:21;;;;;;;;;;;14.80;57.10;;;;;;2088625;28;779;-49
2020/12/06 00:48:40;;;;;;;;;;;14.80;57.10;;;;;;2085556;28;770;-49
2020/12/06 00:50:00;;;;;;;;;;;14.80;57.30;;;;;;2089315;28;778;-48
2020/12/06 00:51:19;;;;;;;;;;;14.80;57.40;;;;;;2089706;28;758;-49
2020/12/06 00:52:39;;;;;;;;;;;14.80;57.40;;;;;;2089440;28;780;-49
2020/12/06 00:53:59;;;;;;;;;;;14.80;57.30;;;;;;2088629;28;841;-49
2020/12/06 00:55:18;;;;;;;;;;;14.80;57.30;;;;;;2088669;28;724;-49
2020/12/06 00:56:38;;;;;;;;;;;14.70;57.70;;;;;;2089067;28;758;-49
2020/12/06 00:57:57;;;;;;;;;;;14.80;57.40;;;;;;2089106;28;721;-48
2020/12/06 00:59:16;;;;;;;;;;;14.70;57.50;;;;;;2089069;28;754;-48
2020/12/06 01:00:35;;;;;;;;;;;14.70;57.40;;;;;;2089320;28;808;-49
2020/12/06 01:01:55;;;;;;;;;;;14.70;57.40;;;;;;2089606;28;753;-48
2020/12/06 01:03:14;;;;;;;;;;;14.70;57.40;;;;;;2086835;28;1360;-50
2020/12/06 01:04:33;;;;;;;;;;;14.70;57.40;;;;;;2082331;28;1087;-49
2020/12/06 01:05:52;;;;;;;;;;;14.70;57.60;;;;;;2090157;28;992;-49
2020/12/06 01:07:11;;;;;;;;;;;14.70;57.60;;;;;;2091350;28;750;-49
2020/12/06 01:08:30;;;;;;;;;;;14.70;57.60;;;;;;2091463;28;727;-49
2020/12/06 01:09:50;;;;;;;;;;;14.70;57.60;;;;;;2090904;28;995;-50
2020/12/06 01:11:13;;;;;;;;;;;14.70;57.60;;;;;;2091176;28;734;-48
2020/12/06 01:12:32;;;;;;;;;;;14.70;58.30;;;;;;2082286;28;710;-49
2020/12/06 01:13:51;;;;;;;;;;;14.70;57.70;;;;;;2087909;28;754;-48
2020/12/06 01:15:10;;;;;;;;;;;14.70;57.70;;;;;;2090322;28;734;-48
2020/12/06 01:16:30;;;;;;;;;;;14.70;57.80;;;;;;2091109;28;800;-49
2020/12/06 01:17:49;;;;;;;;;;;14.60;57.70;;;;;;2082204;28;722;-50
2020/12/06 01:19:08;;;;;;;;;;;14.60;57.80;;;;;;2087373;28;716;-49
2020/12/06 01:20:27;;;;;;;;;;;14.60;57.80;;;;;;2091180;28;730;-49
2020/12/06 01:21:50;;;;;;;;;;;14.60;57.80;;;;;;2091201;28;705;-49
2020/12/06 01:23:09;;;;;;;;;;;14.60;57.90;;;;;;2090358;28;1836;-49
2020/12/06 01:24:28;;;;;;;;;;;14.60;58.30;;;;;;2090314;28;1312;-49
2020/12/06 01:25:48;;;;;;;;;;;14.60;57.90;;;;;;2090455;28;731;-48
2020/12/06 01:27:07;;;;;;;;;;;14.60;57.90;;;;;;2087097;28;762;-49
2020/12/06 01:28:27;;;;;;;;;;;14.60;57.90;;;;;;2090773;28;741;-49
2020/12/06 01:29:46;;;;;;;;;;;14.60;57.90;;;;;;2090988;28;761;-48
2020/12/06 01:31:06;;;;;;;;;;;14.60;57.90;;;;;;2091106;28;712;-48
2020/12/06 01:32:25;;;;;;;;;;;14.60;58.00;;;;;;2090167;28;795;-48
2020/12/06 01:33:44;;;;;;;;;;;14.50;57.90;;;;;;2090497;28;967;-48
2020/12/06 01:35:03;;;;;;;;;;;14.50;57.90;;;;;;2086701;28;946;-49
2020/12/06 01:36:22;;;;;;;;;;;14.50;58.10;;;;;;2085763;28;953;-49
2020/12/06 01:37:41;;;;;;;;;;;14.50;58.10;;;;;;2082456;28;722;-49
2020/12/06 01:39:00;;;;;;;;;;;14.50;58.10;;;;;;2082687;28;770;-48
2020/12/06 01:40:19;;;;;;;;;;;14.50;58.10;;;;;;2082862;28;1914;-48
2020/12/06 01:41:38;;;;;;;;;;;14.50;58.00;;;;;;2082248;28;782;-49
2020/12/06 01:42:58;;;;;;;;;;;14.50;58.80;;;;;;2082310;28;1354;-50
2020/12/06 01:44:17;;;;;;;;;;;14.50;58.20;;;;;;2082786;28;711;-50
2020/12/06 01:45:37;;;;;;;;;;;14.50;58.20;;;;;;2082027;28;713;-49
2020/12/06 01:46:56;;;;;;;;;;;14.50;58.20;;;;;;2074039;28;774;-48
2020/12/06 01:48:15;;;;;;;;;;;14.50;58.20;;;;;;2084054;28;749;-49
2020/12/06 01:49:38;;;;;;;;;;;14.50;58.30;;;;;;2085273;28;767;-49
2020/12/06 01:50:57;;;;;;;;;;;14.40;58.30;;;;;;2082889;28;783;-49
2020/12/06 01:52:16;;;;;;;;;;;14.40;58.20;;;;;;2082153;28;733;-49
2020/12/06 01:53:35;;;;;;;;;;;14.40;58.20;;;;;;2070466;28;1497;-49
2020/12/06 01:54:54;;;;;;;;;;;14.40;58.80;;;;;;2078429;28;721;-49
2020/12/06 01:56:14;;;;;;;;;;;14.40;58.90;;;;;;2081946;28;741;-48
2020/12/06 01:57:33;;;;;;;;;;;14.40;58.90;;;;;;2082339;28;715;-49
2020/12/06 01:58:52;;;;;;;;;;;14.40;58.30;;;;;;2082217;28;740;-48
2020/12/06 02:00:11;;;;;;;;;;;14.40;58.30;;;;;;2082078;28;1906;-48
2020/12/06 02:01:30;;;;;;;;;;;14.40;58.30;;;;;;2082558;28;727;-49
2020/12/06 02:02:50;;;;;;;;;;;14.40;58.50;;;;;;2073806;28;1374;-48
2020/12/06 02:04:09;;;;;;;;;;;14.40;58.50;;;;;;2084907;28;981;-49
2020/12/06 02:05:28;;;;;;;;;;;14.40;58.50;;;;;;2081792;28;1081;-49
2020/12/06 02:06:48;;;;;;;;;;;14.40;58.50;;;;;;2081918;28;723;-49
2020/12/06 02:08:07;;;;;;;;;;;14.40;58.60;;;;;;2082219;28;773;-49
2020/12/06 02:09:27;;;;;;;;;;;14.30;58.60;;;;;;2073811;28;823;-48
2020/12/06 02:10:46;;;;;;;;;;;14.30;58.60;;;;;;2079226;28;749;-49
2020/12/06 02:12:06;;;;;;;;;;;14.30;59.00;;;;;;2081734;28;745;-49
2020/12/06 02:13:25;;;;;;;;;;;14.40;59.10;;;;;;2082108;28;1528;-49
2020/12/06 02:14:44;;;;;;;;;;;14.30;58.60;;;;;;2081776;28;706;-50
2020/12/06 02:16:04;;;;;;;;;;;14.30;58.50;;;;;;2082589;28;697;-49
2020/12/06 02:17:26;;;;;;;;;;;14.30;58.50;;;;;;2081493;28;771;-50
2020/12/06 02:18:45;;;;;;;;;;;14.30;58.60;;;;;;2089259;28;1591;-48
2020/12/06 02:20:04;;;;;;;;;;;14.30;58.60;;;;;;2090718;28;1969;-48
2020/12/06 02:21:23;;;;;;;;;;;14.30;58.70;;;;;;2090065;28;734;-49
2020/12/06 02:22:42;;;;;;;;;;;14.30;58.80;;;;;;2090281;28;713;-49
2020/12/06 02:24:02;;;;;;;;;;;14.30;58.70;;;;;;2090842;28;715;-48
2020/12/06 02:25:21;;;;;;;;;;;14.30;58.80;;;;;;2089970;28;722;-48
2020/12/06 02:26:40;;;;;;;;;;;14.30;59.30;;;;;;2090731;28;698;-48
2020/12/06 02:27:59;;;;;;;;;;;14.30;58.90;;;;;;2089960;28;783;-49
2020/12/06 02:29:19;;;;;;;;;;;14.30;59.40;;;;;;2086598;28;765;-48
2020/12/06 02:30:38;;;;;;;;;;;14.20;58.80;;;;;;2090635;28;718;-48
2020/12/06 02:31:57;;;;;;;;;;;14.20;58.80;;;;;;2090657;28;713;-49
2020/12/06 02:33:17;;;;;;;;;;;14.20;58.90;;;;;;2086826;28;1379;-48
2020/12/06 02:34:36;;;;;;;;;;;14.20;59.00;;;;;;2088057;28;924;-49
2020/12/06 02:35:56;;;;;;;;;;;14.20;58.90;;;;;;2093445;28;1055;-49
2020/12/06 02:37:15;;;;;;;;;;;14.30;59.00;;;;;;2090600;28;703;-49
2020/12/06 02:38:34;;;;;;;;;;;14.20;58.90;;;;;;2090107;28;758;-49
2020/12/06 02:39:53;;;;;;;;;;;14.20;59.00;;;;;;2090118;28;1902;-48
2020/12/06 02:41:13;;;;;;;;;;;14.20;59.00;;;;;;2090605;28;703;-49
2020/12/06 02:42:32;;;;;;;;;;;14.20;59.00;;;;;;2090427;28;715;-49
2020/12/06 02:43:51;;;;;;;;;;;14.20;59.10;;;;;;2090559;28;1004;-49
2020/12/06 02:45:10;;;;;;;;;;;14.20;59.60;;;;;;2089205;28;740;-49
2020/12/06 02:46:29;;;;;;;;;;;14.20;59.50;;;;;;2090038;28;729;-49
2020/12/06 02:47:48;;;;;;;;;;;14.20;59.60;;;;;;2090399;28;720;-48
2020/12/06 02:49:08;;;;;;;;;;;14.20;59.10;;;;;;2090436;28;713;-48
2020/12/06 02:50:27;;;;;;;;;;;14.10;59.10;;;;;;2090577;28;724;-48
2020/12/06 02:51:46;;;;;;;;;;;14.20;59.20;;;;;;2090235;28;734;-48
2020/12/06 02:53:06;;;;;;;;;;;14.10;59.10;;;;;;2089760;28;1444;-48
2020/12/06 02:54:27;;;;;;;;;;;14.10;59.00;;;;;;2086671;28;973;-49
2020/12/06 02:55:46;;;;;;;;;;;14.10;59.20;;;;;;2090137;28;780;-49
2020/12/06 02:57:05;;;;;;;;;;;14.10;59.10;;;;;;2090407;28;704;-48
2020/12/06 02:58:24;;;;;;;;;;;14.10;59.20;;;;;;2090445;28;741;-50
2020/12/06 02:59:43;;;;;;;;;;;14.10;59.40;;;;;;2089804;28;1910;-48
2020/12/06 03:01:02;;;;;;;;;;;14.10;59.80;;;;;;2090273;28;725;-49
2020/12/06 03:02:22;;;;;;;;;;;14.10;59.80;;;;;;2090224;28;740;-48
2020/12/06 03:03:41;;;;;;;;;;;14.10;59.90;;;;;;2086149;28;1373;-48
2020/12/06 03:05:00;;;;;;;;;;;14.10;59.40;;;;;;2088779;28;1104;-49
2020/12/06 03:06:19;;;;;;;;;;;14.10;59.30;;;;;;2089486;28;1012;-48
2020/12/06 03:07:39;;;;;;;;;;;14.10;59.40;;;;;;2090108;28;712;-48
2020/12/06 03:08:58;;;;;;;;;;;14.00;59.30;;;;;;2089979;28;743;-49
2020/12/06 03:10:17;;;;;;;;;;;14.00;59.40;;;;;;2090216;28;754;-48
2020/12/06 03:11:36;;;;;;;;;;;14.10;59.50;;;;;;2090412;28;792;-49
2020/12/06 03:12:56;;;;;;;;;;;14.00;59.40;;;;;;2089343;28;1369;-50
2020/12/06 03:14:15;;;;;;;;;;;14.00;59.40;;;;;;2089680;28;726;-48
2020/12/06 03:15:34;;;;;;;;;;;14.10;59.50;;;;;;2089580;28;697;-48
2020/12/06 03:16:53;;;;;;;;;;;14.00;59.40;;;;;;2089745;28;769;-48
2020/12/06 03:18:13;;;;;;;;;;;14.00;59.40;;;;;;2086465;28;727;-48
2020/12/06 03:19:32;;;;;;;;;;;14.00;59.40;;;;;;2089650;28;1966;-49
2020/12/06 03:20:51;;;;;;;;;;;14.00;59.90;;;;;;2090342;28;719;-49
2020/12/06 03:22:10;;;;;;;;;;;14.00;59.40;;;;;;2090060;28;717;-49
2020/12/06 03:23:29;;;;;;;;;;;14.00;59.40;;;;;;2088934;28;1465;-49
2020/12/06 03:24:48;;;;;;;;;;;14.00;59.50;;;;;;2088901;28;716;-48
2020/12/06 03:26:08;;;;;;;;;;;14.00;59.50;;;;;;2089748;28;716;-49
2020/12/06 03:27:27;;;;;;;;;;;14.00;59.50;;;;;;2089911;28;754;-49
2020/12/06 03:28:46;;;;;;;;;;;14.00;59.60;;;;;;2089260;28;719;-49
2020/12/06 03:30:05;;;;;;;;;;;14.00;59.70;;;;;;2090231;28;711;-48
2020/12/06 03:31:25;;;;;;;;;;;13.90;59.50;;;;;;2090030;28;802;-49
2020/12/06 03:32:44;;;;;;;;;;;14.00;59.70;;;;;;2090072;28;773;-48
2020/12/06 03:34:03;;;;;;;;;;;14.00;59.60;;;;;;2086244;28;1085;-48
2020/12/06 03:35:22;;;;;;;;;;;14.00;59.70;;;;;;2089185;28;1185;-49
2020/12/06 03:36:41;;;;;;;;;;;14.00;59.70;;;;;;2081692;28;725;-49
2020/12/06 03:38:01;;;;;;;;;;;13.90;59.60;;;;;;2081780;28;754;-49
2020/12/06 03:39:20;;;;;;;;;;;13.90;59.70;;;;;;2089560;28;764;-48
2020/12/06 03:40:39;;;;;;;;;;;13.90;60.40;;;;;;2081363;28;872;-51
2020/12/06 03:41:58;;;;;;;;;;;13.90;60.40;;;;;;2081491;28;739;-48
2020/12/06 03:43:17;;;;;;;;;;;13.90;59.70;;;;;;2081889;28;1440;-48
2020/12/06 03:44:36;;;;;;;;;;;13.90;59.80;;;;;;2081820;28;697;-49
2020/12/06 03:45:56;;;;;;;;;;;13.90;59.70;;;;;;2081071;28;752;-47
2020/12/06 03:47:17;;;;;;;;;;;13.90;59.70;;;;;;2081740;28;730;-49
2020/12/06 03:48:36;;;;;;;;;;;13.90;59.80;;;;;;2081695;28;778;-49
2020/12/06 03:49:55;;;;;;;;;;;13.90;59.80;;;;;;2078680;28;1641;-49
2020/12/06 03:51:15;;;;;;;;;;;13.90;59.90;;;;;;2081835;28;825;-49
2020/12/06 03:52:34;;;;;;;;;;;13.90;59.90;;;;;;2081628;28;913;-51
2020/12/06 03:53:53;;;;;;;;;;;13.90;59.80;;;;;;2085484;28;945;-49
2020/12/06 03:55:12;;;;;;;;;;;13.90;60.50;;;;;;2080430;28;934;-49
2020/12/06 03:56:31;;;;;;;;;;;13.90;60.50;;;;;;2074542;28;740;-48
2020/12/06 03:57:50;;;;;;;;;;;13.90;59.90;;;;;;2081455;28;704;-48
2020/12/06 03:59:10;;;;;;;;;;;13.90;59.90;;;;;;2081764;28;774;-49
2020/12/06 04:00:29;;;;;;;;;;;13.90;59.90;;;;;;2081447;28;1977;-49
2020/12/06 04:01:48;;;;;;;;;;;13.80;59.90;;;;;;2081869;28;738;-49
2020/12/06 04:03:08;;;;;;;;;;;13.80;60.00;;;;;;2082658;28;1436;-49
2020/12/06 04:04:27;;;;;;;;;;;13.80;59.90;;;;;;2081374;28;916;-48
2020/12/06 04:05:46;;;;;;;;;;;13.80;59.80;;;;;;2086415;28;1256;-49
2020/12/06 04:07:05;;;;;;;;;;;13.80;60.00;;;;;;2077845;28;1047;-50
2020/12/06 04:08:25;;;;;;;;;;;13.80;59.90;;;;;;2077831;28;711;-49
2020/12/06 04:09:44;;;;;;;;;;;13.80;60.00;;;;;;2081454;28;709;-48
2020/12/06 04:11:05;;;;;;;;;;;13.80;60.10;;;;;;2080978;28;732;-49
2020/12/06 04:12:24;;;;;;;;;;;13.80;60.10;;;;;;2082914;28;1252;-49
2020/12/06 04:13:43;;;;;;;;;;;13.80;60.90;;;;;;2080806;28;1397;-49
2020/12/06 04:15:02;;;;;;;;;;;13.80;61.10;;;;;;2080629;28;722;-49
2020/12/06 04:16:22;;;;;;;;;;;13.80;60.20;;;;;;2080738;28;759;-49
2020/12/06 04:17:41;;;;;;;;;;;13.80;60.20;;;;;;2081328;28;741;-48
2020/12/06 04:19:00;;;;;;;;;;;13.80;60.10;;;;;;2081119;28;710;-48
2020/12/06 04:20:19;;;;;;;;;;;13.80;60.20;;;;;;2085604;28;1962;-49
2020/12/06 04:21:39;;;;;;;;;;;13.70;60.10;;;;;;2084959;28;649;-49
2020/12/06 04:22:58;;;;;;;;;;;13.70;60.10;;;;;;2081810;28;1473;-49
2020/12/06 04:24:17;;;;;;;;;;;13.70;60.10;;;;;;2080981;28;709;-49
2020/12/06 04:25:36;;;;;;;;;;;13.70;60.20;;;;;;2081176;28;683;-48
2020/12/06 04:26:56;;;;;;;;;;;13.70;60.10;;;;;;2081352;28;728;-49
2020/12/06 04:28:15;;;;;;;;;;;13.70;60.30;;;;;;2077833;28;719;-51
2020/12/06 04:29:34;;;;;;;;;;;13.70;60.40;;;;;;2081708;28;708;-49
2020/12/06 04:30:53;;;;;;;;;;;13.70;60.30;;;;;;2081856;28;735;-50
2020/12/06 04:32:12;;;;;;;;;;;13.70;61.00;;;;;;2081694;28;759;-49
2020/12/06 04:33:31;;;;;;;;;;;13.70;61.10;;;;;;2086781;28;1365;-49
2020/12/06 04:34:51;;;;;;;;;;;13.70;60.50;;;;;;2088889;28;1162;-51
2020/12/06 04:36:10;;;;;;;;;;;13.70;60.50;;;;;;2089824;28;1008;-49
2020/12/06 04:37:29;;;;;;;;;;;13.70;60.30;;;;;;2089979;28;734;-48
2020/12/06 04:38:49;;;;;;;;;;;13.70;60.60;;;;;;2089637;28;728;-49
2020/12/06 04:40:08;;;;;;;;;;;13.70;60.60;;;;;;2089270;28;1910;-49
2020/12/06 04:41:27;;;;;;;;;;;13.70;60.50;;;;;;2090075;28;736;-52
2020/12/06 04:42:46;;;;;;;;;;;13.70;60.60;;;;;;2089892;28;767;-48
2020/12/06 04:44:06;;;;;;;;;;;13.70;60.50;;;;;;2089185;28;790;-48
2020/12/06 04:45:25;;;;;;;;;;;13.70;60.50;;;;;;2085662;28;705;-49
2020/12/06 04:46:44;;;;;;;;;;;13.70;60.40;;;;;;2085979;28;721;-49
2020/12/06 04:48:04;;;;;;;;;;;13.60;60.50;;;;;;2086024;28;685;-49
2020/12/06 04:49:49;;;;;;;;;;;13.70;61.40;;;;;;2085913;28;737;-49
2020/12/06 04:51:08;;;;;;;;;;;13.70;61.30;;;;;;2089678;28;742;-49
2020/12/06 04:52:27;;;;;;;;;;;13.70;60.70;;;;;;2089185;28;737;-49
2020/12/06 04:53:47;;;;;;;;;;;13.60;60.60;;;;;;2077767;28;1311;-49
2020/12/06 04:55:06;;;;;;;;;;;13.60;60.60;;;;;;2082079;28;753;-51
2020/12/06 04:56:25;;;;;;;;;;;13.60;60.50;;;;;;2085737;28;702;-50
2020/12/06 04:57:44;;;;;;;;;;;13.60;60.60;;;;;;2086186;28;737;-49
2020/12/06 04:59:03;;;;;;;;;;;13.60;60.70;;;;;;2077828;28;735;-49
2020/12/06 05:00:31;;;;;;;;;;;13.60;60.70;;;;;;2086297;28;1975;-49
2020/12/06 05:01:50;;;;;;;;;;;13.60;60.60;;;;;;2089853;28;593;-50
2020/12/06 05:03:10;;;;;;;;;;;13.60;60.70;;;;;;2088876;28;1408;-51
2020/12/06 05:04:29;;;;;;;;;;;13.60;60.90;;;;;;2089508;28;925;-50
2020/12/06 05:05:48;;;;;;;;;;;13.60;61.50;;;;;;2088778;28;1094;-48
2020/12/06 05:07:07;;;;;;;;;;;13.60;60.80;;;;;;2078036;28;1460;-48
2020/12/06 05:08:27;;;;;;;;;;;13.60;60.80;;;;;;2083825;28;1151;-47
2020/12/06 05:09:47;;;;;;;;;;;13.60;61.20;;;;;;2077073;28;1562;-49
2020/12/06 05:11:06;;;;;;;;;;;13.60;61.20;;;;;;2075242;28;1339;-49
2020/12/06 05:12:26;;;;;;;;;;;13.50;61.10;;;;;;2075369;28;1419;-48
2020/12/06 05:13:45;;;;;;;;;;;13.50;61.00;;;;;;2078184;28;1291;-49
2020/12/06 05:15:04;;;;;;;;;;;13.50;61.10;;;;;;2080395;28;706;-48
2020/12/06 05:16:23;;;;;;;;;;;13.50;61.30;;;;;;2070864;28;1374;-49
2020/12/06 05:17:42;;;;;;;;;;;13.50;61.20;;;;;;2074389;28;1175;-49
2020/12/06 05:19:02;;;;;;;;;;;13.50;61.30;;;;;;2074056;28;1215;-48
2020/12/06 05:20:21;;;;;;;;;;;13.50;61.40;;;;;;2081166;28;1906;-48
2020/12/06 05:21:41;;;;;;;;;;;13.50;62.10;;;;;;2085129;28;1255;-48
2020/12/06 05:23:00;;;;;;;;;;;13.50;61.70;;;;;;2080925;28;1500;-48
2020/12/06 05:24:19;;;;;;;;;;;13.50;61.40;;;;;;2083649;28;1113;-48
2020/12/06 05:25:38;;;;;;;;;;;13.50;61.50;;;;;;2081139;28;1152;-49
2020/12/06 05:26:58;;;;;;;;;;;13.50;61.70;;;;;;2080247;28;1071;-48
2020/12/06 05:28:21;;;;;;;;;;;13.50;61.60;;;;;;2084864;28;986;-48
2020/12/06 05:29:41;;;;;;;;;;;13.50;61.90;;;;;;2087463;28;832;-50
2020/12/06 05:31:01;;;;;;;;;;;13.50;61.90;;;;;;2086941;28;935;-49
2020/12/06 05:32:20;;;;;;;;;;;13.50;62.10;;;;;;2084028;28;929;-49
2020/12/06 05:33:39;;;;;;;;;;;13.40;62.50;;;;;;2083716;28;1389;-48
2020/12/06 05:34:58;;;;;;;;;;;13.40;62.80;;;;;;2086545;28;1050;-49
2020/12/06 05:36:17;;;;;;;;;;;13.40;62.00;;;;;;2082653;28;1393;-49
2020/12/06 05:37:37;;;;;;;;;;;13.40;62.30;;;;;;2083427;28;895;-48
2020/12/06 05:38:56;;;;;;;;;;;13.40;62.20;;;;;;2080954;28;948;-49
2020/12/06 05:40:18;;;;;;;;;;;13.40;62.20;;;;;;2087364;28;1910;-48
2020/12/06 05:41:37;;;;;;;;;;;13.40;62.20;;;;;;2086308;28;958;-48
2020/12/06 05:42:57;;;;;;;;;;;13.40;62.20;;;;;;2087031;28;1511;-49
2020/12/06 05:44:21;;;;;;;;;;;13.40;62.30;;;;;;2084780;28;990;-48
2020/12/06 05:45:41;;;;;;;;;;;13.40;62.50;;;;;;2083381;28;1243;-48
2020/12/06 05:47:00;;;;;;;;;;;13.40;62.40;;;;;;2083816;28;1182;-48
2020/12/06 05:48:19;;;;;;;;;;;13.30;62.30;;;;;;2083606;28;1138;-48
2020/12/06 05:49:39;;;;;;;;;;;13.30;62.50;;;;;;2078927;28;1169;-48
2020/12/06 05:50:59;;;;;;;;;;;13.30;62.50;;;;;;2084255;28;1130;-49
2020/12/06 05:52:18;;;;;;;;;;;13.30;62.40;;;;;;2084325;28;1239;-48
2020/12/06 05:53:37;;;;;;;;;;;13.30;62.60;;;;;;2086822;28;1353;-49
2020/12/06 05:54:56;;;;;;;;;;;13.30;62.60;;;;;;2082084;28;1156;-48
2020/12/06 05:56:18;;;;;;;;;;;13.30;62.70;;;;;;2083140;28;1209;-50
2020/12/06 05:57:38;;;;;;;;;;;13.30;62.70;;;;;;2075899;28;1065;-49
2020/12/06 05:58:57;;;;;;;;;;;13.30;62.60;;;;;;2079511;28;1269;-49
2020/12/06 06:00:16;;;;;;;;;;;13.30;62.60;;;;;;2083873;28;1910;-49
2020/12/06 06:01:36;;;;;;;;;;;13.30;62.70;;;;;;2089194;28;1146;-48
2020/12/06 06:02:55;;;;;;;;;;;13.30;62.70;;;;;;2081389;28;1406;-48
2020/12/06 06:04:14;;;;;;;;;;;13.30;62.60;;;;;;2091604;28;1222;-49
2020/12/06 06:05:33;;;;;;;;;;;13.30;62.80;;;;;;2088504;28;1157;-47
2020/12/06 06:06:53;;;;;;;;;;;13.30;62.80;;;;;;2085107;28;1140;-50
2020/12/06 06:08:12;;;;;;;;;;;13.30;62.70;;;;;;2088893;28;1109;-49
2020/12/06 06:09:33;;;;;;;;;;;13.30;62.90;;;;;;2089385;28;1160;-48
2020/12/06 06:11:01;;;;;;;;;;;13.30;62.80;;;;;;2085178;28;1195;-49
2020/12/06 06:12:30;;;;;;;;;;;13.30;62.90;;;;;;2090565;28;997;-48
2020/12/06 06:13:51;;;;;;;;;;;13.20;62.80;;;;;;2089911;28;1225;-48
2020/12/06 06:15:10;;;;;;;;;;;13.20;62.80;;;;;;2083450;28;1099;-49
2020/12/06 06:16:30;;;;;;;;;;;13.20;62.80;;;;;;2085712;28;1187;-49
2020/12/06 06:17:49;;;;;;;;;;;13.20;62.80;;;;;;2084647;28;1165;-49
2020/12/06 06:19:09;;;;;;;;;;;13.20;62.80;;;;;;2081981;28;1126;-48
2020/12/06 06:20:28;;;;;;;;;;;13.20;62.90;;;;;;2083484;28;1914;-48
2020/12/06 06:21:47;;;;;;;;;;;13.20;63.00;;;;;;2085948;28;1386;-49
2020/12/06 06:23:07;;;;;;;;;;;13.20;62.90;;;;;;2085909;28;1317;-49
2020/12/06 06:24:26;;;;;;;;;;;13.20;63.00;;;;;;2078040;28;1228;-48
2020/12/06 06:25:45;;;;;;;;;;;13.20;63.20;;;;;;2085289;28;1004;-48
2020/12/06 06:27:04;;;;;;;;;;;13.20;63.10;;;;;;2085187;28;1115;-48
2020/12/06 06:28:24;;;;;;;;;;;13.20;63.00;;;;;;2085477;28;1466;-48
2020/12/06 06:29:43;;;;;;;;;;;13.20;63.00;;;;;;2081475;28;2032;-49
2020/12/06 06:31:03;;;;;;;;;;;13.20;63.10;;;;;;2076598;28;1284;-48
2020/12/06 06:32:22;;;;;;;;;;;13.20;63.40;;;;;;2081516;28;1078;-47
2020/12/06 06:33:42;;;;;;;;;;;13.20;63.70;;;;;;2086195;28;1319;-46
2020/12/06 06:35:07;;;;;;;;;;;13.20;63.60;;;;;;2079472;28;1257;-48
2020/12/06 06:36:26;;;;;;;;;;;13.30;64.00;;;;;;2087318;28;1139;-48
2020/12/06 06:37:45;;;;;;;;;;;13.30;63.90;;;;;;2079616;28;1213;-48
2020/12/06 06:39:05;;;;;;;;;;;13.30;64.00;;;;;;2083960;28;1383;-48
2020/12/06 06:40:27;;;;;;;;;;;13.30;64.00;;;;;;2085539;28;1898;-49
2020/12/06 06:42:01;;;;;;;;;;;13.30;63.90;;;;;;2084890;28;1662;-48
2020/12/06 06:43:22;;;;;;;;;;;13.30;64.00;;;;;;2087798;28;1496;-49
2020/12/06 06:44:42;;;;;;;;;;;13.30;63.90;;;;;;2086105;28;881;-49
2020/12/06 06:46:13;;;;;;;;;;;13.20;63.70;;;;;;2082607;28;970;-48
2020/12/06 06:47:39;;;;;;;;;;;13.20;63.70;;;;;;2085217;28;804;-48
2020/12/06 06:48:58;;;;;;;;;;;13.20;64.10;;;;;;2084885;28;749;-49
2020/12/06 06:50:17;;;;;;;;;;;13.20;64.20;;;;;;2075506;28;751;-47
2020/12/06 06:51:36;;;;;;;;;;;13.20;64.10;;;;;;2077997;28;743;-48
2020/12/06 06:52:56;;;;;;;;;;;13.20;64.40;;;;;;2082542;28;1425;-49
2020/12/06 06:54:16;;;;;;;;;;;13.20;64.40;;;;;;2086403;28;943;-48
2020/12/06 06:55:47;;;;;;;;;;;13.20;64.40;;;;;;2088683;28;710;-48
2020/12/06 06:57:06;;;;;;;;;;;13.10;64.40;;;;;;2088956;28;710;-49
2020/12/06 06:58:29;;;;;;;;;;;13.10;64.50;;;;;;2089103;28;743;-48
2020/12/06 06:59:49;;;;;;;;;;;13.10;64.70;;;;;;2089707;28;1965;-49
2020/12/06 07:01:21;;;;;;;;;;;13.10;64.60;;;;;;2089118;28;715;-48
2020/12/06 07:02:40;;;;;;;;;;;13.10;65.20;;;;;;2089107;28;1098;-48
2020/12/06 07:03:59;;;;;;;;;;;13.10;64.60;;;;;;2082454;28;953;-49
2020/12/06 07:05:19;;;;;;;;;;;13.10;64.70;;;;;;2084992;28;1009;-49
2020/12/06 07:06:48;;;;;;;;;;;13.10;65.50;;;;;;2081205;28;726;-48
2020/12/06 07:08:11;;;;;;;;;;;13.10;64.60;;;;;;2081432;28;680;-48
2020/12/06 07:09:30;;;;;;;;;;;13.10;64.70;;;;;;2075717;28;855;-48
2020/12/06 07:10:49;;;;;;;;;;;13.10;64.80;;;;;;2080494;28;1465;-48
2020/12/06 07:12:08;;;;;;;;;;;13.00;64.50;;;;;;2085123;28;747;-47
2020/12/06 07:13:28;;;;;;;;;;;13.10;64.70;;;;;;2086562;28;1420;-48
2020/12/06 07:14:47;;;;;;;;;;;13.00;64.60;;;;;;2081008;28;727;-47
2020/12/06 07:16:10;;;;;;;;;;;13.00;65.00;;;;;;2086049;28;715;-48
2020/12/06 07:17:29;;;;;;;;;;;13.10;65.20;;;;;;2082326;28;827;-46
2020/12/06 07:18:48;;;;;;;;;;;13.10;65.40;;;;;;2084650;28;793;-48
2020/12/06 07:20:08;;;;;;;;;;;13.10;65.10;;;;;;2084359;28;1906;-48
2020/12/06 07:21:31;;;;;;;;;;;13.10;64.40;;;;;;2069756;28;817;-49
2020/12/06 07:22:52;;;;;;;;;;;13.10;64.80;;;;;;2067437;28;1406;-48
2020/12/06 07:24:12;;;;;;;;;;;13.10;64.10;;;;;;2081953;28;734;-49
2020/12/06 07:25:31;;;;;;;;;;;13.10;64.10;;;;;;2075579;28;789;-48
2020/12/06 07:26:50;;;;;;;;;;;13.10;64.20;;;;;;2079653;28;1335;-48
2020/12/06 07:28:09;;;;;;;;;;;13.00;64.10;;;;;;2083363;28;1004;-49
2020/12/06 07:29:28;;;;;;;;;;;13.00;64.20;;;;;;2076317;28;749;-49
2020/12/06 07:30:48;;;;;;;;;;;13.00;64.30;;;;;;2075430;28;964;-48
2020/12/06 07:32:08;;;;;;;;;;;13.00;64.20;;;;;;2075065;28;803;-47
2020/12/06 07:33:27;;;;;;;;;;;13.00;65.10;;;;;;2080868;28;1362;-48
2020/12/06 07:34:47;;;;;;;;;;;13.00;64.50;;;;;;2083477;28;897;-48
2020/12/06 07:36:06;;;;;;;;;;;13.00;64.40;;;;;;2082382;28;918;-48
2020/12/06 07:37:25;;;;;;;;;;;13.00;64.40;;;;;;2072489;28;753;-48
2020/12/06 07:38:45;;;;;;;;;;;13.00;64.40;;;;;;2081959;28;754;-48
2020/12/06 07:40:05;;;;;;;;;;;13.00;64.40;;;;;;2085278;28;1910;-48
2020/12/06 07:41:24;;;;;;;;;;;13.00;64.50;;;;;;2083742;28;796;-47
2020/12/06 07:42:43;;;;;;;;;;;12.90;64.40;;;;;;2083467;28;819;-48
2020/12/06 07:44:03;;;;;;;;;;;12.90;64.40;;;;;;2087505;28;990;-48
2020/12/06 07:45:25;;;;;;;;;;;13.00;64.60;;;;;;2088058;28;756;-48
2020/12/06 07:46:44;;;;;;;;;;;12.90;64.60;;;;;;2085644;28;825;-48
2020/12/06 07:48:03;;;;;;;;;;;12.90;65.20;;;;;;2085392;28;745;-49
2020/12/06 07:49:22;;;;;;;;;;;12.90;64.50;;;;;;2082718;28;1792;-48
2020/12/06 07:50:45;;;;;;;;;;;12.90;64.50;;;;;;2083328;28;1074;-49
2020/12/06 07:52:23;;;;;;;;;;;12.90;64.50;;;;;;2089306;28;1093;-48
2020/12/06 07:53:43;;;;;;;;;;;12.90;64.70;;;;;;2088241;28;1448;-48
2020/12/06 07:55:04;;;;;;;;;;;12.90;64.60;;;;;;2088109;28;825;-48
2020/12/06 07:56:24;;;;;;;;;;;12.90;65.30;;;;;;2076674;28;1730;-49